Time;durP1;ratioP1;P1;durP2;ratioP2;P2;SDS_P1;SDS_P2;PMS_P1;PMS_P2;Temp;Humidity;BMP_temperature;BMP_pressure;BME280_temperature;BME280_humidity;BME280_pressure;Samples;Min_cycle;Max_cycle;Signal;HPM_P1;HPM_P2
2022/07/01 00:01:23;;;;;;;;;;;;;;;;;;5049006;28;19908;-48
2022/07/01 00:03:49;;;;;;;;;;;;;;;;;;5056437;28;19909;-48
2022/07/01 00:06:15;;;;;;;;;;;;;;;;;;5068816;28;19916;-50
2022/07/01 00:08:41;;;;;;;;;;;;;;;;;;5069383;28;19954;-49
2022/07/01 00:11:08;;;;;;;;;;;;;;;;;;5069081;28;20299;-47
2022/07/01 00:13:34;;;;;;;;;;;;;;;;;;5068848;28;19987;-49
2022/07/01 00:15:59;;;;;;;;;;;;;;;;;;5067974;28;20054;-48
2022/07/01 00:18:25;;;;;;;;;;;;;;;;;;5067665;28;19999;-46
2022/07/01 00:20:51;;;;;;;;;;;;;;;;;;5068917;28;19912;-48
2022/07/01 00:23:17;;;;;;;;;;;;;;;;;;5068782;28;19911;-46
2022/07/01 00:25:43;;;;;;;;;;;;;;;;;;5069012;28;19904;-46
2022/07/01 00:28:10;;;;;;;;;;;;;;;;;;5068780;28;19905;-47
2022/07/01 00:30:36;;;;;;;;;;;;;;;;;;5068462;28;19908;-48
2022/07/01 00:33:02;;;;;;;;;;;;;;;;;;5068698;28;19909;-50
2022/07/01 00:35:28;;;;;;;;;;;;;;;;;;5068547;28;19911;-47
2022/07/01 00:37:55;;;;;;;;;;;;;;;;;;5068866;28;19920;-49
2022/07/01 00:40:20;;;;;;;;;;;;;;;;;;5068521;28;20321;-47
2022/07/01 00:42:46;;;;;;;;;;;;;;;;;;5069110;28;19913;-47
2022/07/01 00:45:14;;;;;;;;;;;;;;;;;;5068831;28;19905;-47
2022/07/01 00:47:40;;;;;;;;;;;;;;;;;;5068468;28;19912;-47
2022/07/01 00:50:05;;;;;;;;;;;;;;;;;;5068548;28;20379;-48
2022/07/01 00:52:31;;;;;;;;;;;;;;;;;;5068444;28;19982;-49
2022/07/01 00:54:57;;;;;;;;;;;;;;;;;;5068679;28;20337;-46
2022/07/01 00:57:23;;;;;;;;;;;;;;;;;;5067923;28;19962;-46
2022/07/01 00:59:49;;;;;;;;;;;;;;;;;;5067916;28;19908;-46
2022/07/01 01:02:16;;;;;;;;;;;;;;;;;;5068025;28;19966;-46
2022/07/01 01:04:42;;;;;;;;;;;;;;;;;;5067970;28;19911;-48
2022/07/01 01:07:08;;;;;;;;;;;;;;;;;;5068061;28;20007;-47
2022/07/01 01:09:34;;;;;;;;;;;;;;;;;;5067842;28;19906;-48
2022/07/01 01:12:01;;;;;;;;;;;;;;;;;;5068266;28;19905;-49
2022/07/01 01:14:27;;;;;;;;;;;;;;;;;;5067885;28;20368;-46
2022/07/01 01:16:53;;;;;;;;;;;;;;;;;;5067749;28;19932;-47
2022/07/01 01:19:19;;;;;;;;;;;;;;;;;;5067114;28;19911;-48
2022/07/01 01:21:45;;;;;;;;;;;;;;;;;;5067963;28;19912;-45
2022/07/01 01:24:11;;;;;;;;;;;;;;;;;;5067798;28;19905;-46
2022/07/01 01:26:38;;;;;;;;;;;;;;;;;;5067472;28;20302;-49
2022/07/01 01:29:04;;;;;;;;;;;;;;;;;;5067398;28;19916;-46
2022/07/01 01:31:33;;;;;;;;;;;;;;;;;;5067419;28;19904;-46
2022/07/01 01:33:59;;;;;;;;;;;;;;;;;;5067406;28;19905;-49
2022/07/01 01:36:26;;;;;;;;;;;;;;;;;;5067140;28;20123;-45
2022/07/01 01:38:55;;;;;;;;;;;;;;;;;;5067940;28;19908;-45
2022/07/01 01:41:21;;;;;;;;;;;;;;;;;;5066958;28;19915;-47
2022/07/01 01:43:47;;;;;;;;;;;;;;;;;;5067780;28;19912;-46
2022/07/01 01:46:13;;;;;;;;;;;;;;;;;;5067314;28;19901;-47
2022/07/01 01:48:39;;;;;;;;;;;;;;;;;;5067224;28;20406;-48
2022/07/01 01:51:05;;;;;;;;;;;;;;;;;;5067666;28;19904;-47
2022/07/01 01:53:30;;;;;;;;;;;;;;;;;;5066942;28;19904;-46
2022/07/01 01:55:57;;;;;;;;;;;;;;;;;;5066965;28;19947;-48
2022/07/01 01:58:23;;;;;;;;;;;;;;;;;;5067017;28;19935;-47
2022/07/01 02:00:49;;;;;;;;;;;;;;;;;;5066927;28;20375;-48
2022/07/01 02:03:15;;;;;;;;;;;;;;;;;;5066844;28;19962;-47
2022/07/01 02:05:41;;;;;;;;;;;;;;;;;;5067478;28;19909;-49
2022/07/01 02:08:07;;;;;;;;;;;;;;;;;;5066999;28;19967;-49
2022/07/01 02:10:33;;;;;;;;;;;;;;;;;;5066519;28;19908;-47
2022/07/01 02:13:00;;;;;;;;;;;;;;;;;;5067201;28;19911;-46
2022/07/01 02:15:26;;;;;;;;;;;;;;;;;;5066762;28;19940;-47
2022/07/01 02:17:56;;;;;;;;;;;;;;;;;;5066958;28;19947;-49
2022/07/01 02:20:22;;;;;;;;;;;;;;;;;;5066679;28;20350;-46
2022/07/01 02:22:48;;;;;;;;;;;;;;;;;;5066967;28;19908;-47
2022/07/01 02:25:14;;;;;;;;;;;;;;;;;;5066709;28;19912;-45
2022/07/01 02:27:39;;;;;;;;;;;;;;;;;;5067027;28;19905;-47
2022/07/01 02:30:05;;;;;;;;;;;;;;;;;;5067088;28;20240;-46
2022/07/01 02:32:31;;;;;;;;;;;;;;;;;;5066522;28;19951;-47
2022/07/01 02:34:57;;;;;;;;;;;;;;;;;;5066720;28;19909;-46
2022/07/01 02:37:23;;;;;;;;;;;;;;;;;;5066423;28;19904;-47
2022/07/01 02:39:49;;;;;;;;;;;;;;;;;;5067961;28;19962;-47
2022/07/01 02:42:26;;;;;;;;;;;;;;;;;;5070640;28;20299;-48
2022/07/01 02:44:52;;;;;;;;;;;;;;;;;;5070913;28;19919;-48
2022/07/01 02:47:18;;;;;;;;;;;;;;;;;;5070199;28;19908;-47
2022/07/01 02:49:45;;;;;;;;;;;;;;;;;;5069313;28;19907;-44
2022/07/01 02:52:11;;;;;;;;;;;;;;;;;;5070990;28;19911;-47
2022/07/01 02:54:37;;;;;;;;;;;;;;;;;;5070731;28;19909;-47
2022/07/01 02:57:03;;;;;;;;;;;;;;;;;;5070337;28;19913;-47
2022/07/01 02:59:29;;;;;;;;;;;;;;;;;;5070358;28;19904;-49
2022/07/01 03:01:55;;;;;;;;;;;;;;;;;;5070294;28;19912;-49
2022/07/01 03:04:21;;;;;;;;;;;;;;;;;;5070128;28;19973;-46
2022/07/01 03:06:47;;;;;;;;;;;;;;;;;;5070184;28;19912;-47
2022/07/01 03:09:13;;;;;;;;;;;;;;;;;;5070568;28;19916;-48
2022/07/01 03:11:39;;;;;;;;;;;;;;;;;;5070378;28;19911;-45
2022/07/01 03:14:05;;;;;;;;;;;;;;;;;;5070381;28;19991;-45
2022/07/01 03:16:31;;;;;;;;;;;;;;;;;;5069758;28;19904;-46
2022/07/01 03:18:57;;;;;;;;;;;;;;;;;;5070092;28;20406;-47
2022/07/01 03:21:23;;;;;;;;;;;;;;;;;;5069824;28;19915;-46
2022/07/01 03:23:49;;;;;;;;;;;;;;;;;;5070208;28;19904;-47
2022/07/01 03:26:15;;;;;;;;;;;;;;;;;;5069690;28;20427;-48
2022/07/01 03:28:41;;;;;;;;;;;;;;;;;;5070422;28;19995;-48
2022/07/01 03:31:07;;;;;;;;;;;;;;;;;;5069623;28;20672;-46
2022/07/01 03:33:33;;;;;;;;;;;;;;;;;;5069801;28;20422;-47
2022/07/01 03:35:59;;;;;;;;;;;;;;;;;;5069685;28;19924;-47
2022/07/01 03:38:24;;;;;;;;;;;;;;;;;;5069691;28;20371;-47
2022/07/01 03:40:50;;;;;;;;;;;;;;;;;;5070002;28;19954;-48
2022/07/01 03:43:16;;;;;;;;;;;;;;;;;;5069387;28;19987;-45
2022/07/01 03:45:42;;;;;;;;;;;;;;;;;;5069809;28;20311;-48
2022/07/01 03:48:08;;;;;;;;;;;;;;;;;;5069403;28;20291;-47
2022/07/01 03:50:35;;;;;;;;;;;;;;;;;;5069496;28;19909;-46
2022/07/01 03:55:46;;;;;;;;;;;;;;;;;;5069532;28;19962;-47
2022/07/01 03:58:13;;;;;;;;;;;;;;;;;;5069799;28;19951;-45
2022/07/01 04:00:39;;;;;;;;;;;;;;;;;;5069378;28;19916;-46
2022/07/01 04:03:05;;;;;;;;;;;;;;;;;;5069184;28;19912;-46
2022/07/01 04:05:31;;;;;;;;;;;;;;;;;;5069167;28;20409;-45
2022/07/01 04:07:57;;;;;;;;;;;;;;;;;;5069524;28;19905;-45
2022/07/01 04:10:23;;;;;;;;;;;;;;;;;;5068974;28;19931;-46
2022/07/01 04:12:49;;;;;;;;;;;;;;;;;;5069222;28;20002;-46
2022/07/01 04:15:15;;;;;;;;;;;;;;;;;;5068882;28;19904;-48
2022/07/01 04:17:41;;;;;;;;;;;;;;;;;;5069172;28;20105;-47
2022/07/01 04:20:07;;;;;;;;;;;;;;;;;;5069482;28;19913;-46
2022/07/01 04:22:33;;;;;;;;;;;;;;;;;;5068879;28;20028;-47
2022/07/01 04:25:00;;;;;;;;;;;;;;;;;;5069171;28;19904;-46
2022/07/01 04:27:26;;;;;;;;;;;;;;;;;;5067180;28;20346;-46
2022/07/01 04:29:52;;;;;;;;;;;;;;;;;;5069051;28;19905;-46
2022/07/01 04:32:18;;;;;;;;;;;;;;;;;;5068468;28;19966;-49
2022/07/01 04:34:44;;;;;;;;;;;;;;;;;;5069187;28;19912;-47
2022/07/01 04:37:12;;;;;;;;;;;;;;;;;;5068741;28;19957;-46
2022/07/01 04:39:38;;;;;;;;;;;;;;;;;;5068541;28;20005;-49
2022/07/01 04:42:05;;;;;;;;;;;;;;;;;;5068734;28;19908;-46
2022/07/01 04:44:32;;;;;;;;;;;;;;;;;;5068548;28;19904;-45
2022/07/01 04:46:58;;;;;;;;;;;;;;;;;;5068197;28;19915;-48
2022/07/01 04:49:25;;;;;;;;;;;;;;;;;;5068234;28;19904;-46
2022/07/01 04:51:51;;;;;;;;;;;;;;;;;;5068410;28;19904;-48
2022/07/01 04:54:18;;;;;;;;;;;;;;;;;;5068079;28;20375;-46
2022/07/01 04:56:44;;;;;;;;;;;;;;;;;;5068142;28;19916;-46
2022/07/01 04:59:10;;;;;;;;;;;;;;;;;;5068323;28;20012;-46
2022/07/01 05:01:37;;;;;;;;;;;;;;;;;;5067499;28;19938;-49
2022/07/01 05:04:03;;;;;;;;;;;;;;;;;;5067957;28;20010;-46
2022/07/01 05:06:29;;;;;;;;;;;;;;;;;;5067760;28;19904;-46
2022/07/01 05:08:55;;;;;;;;;;;;;;;;;;5068330;28;19911;-46
2022/07/01 05:11:22;;;;;;;;;;;;;;;;;;5067753;28;19908;-46
2022/07/01 05:13:48;;;;;;;;;;;;;;;;;;5068086;28;19944;-46
2022/07/01 05:16:13;;;;;;;;;;;;;;;;;;5068779;28;19974;-47
2022/07/01 05:24:09;;;;;;;;;;;;;;;;;;5069286;28;19916;-46
2022/07/01 05:26:35;;;;;;;;;;;;;;;;;;5068802;28;19909;-48
2022/07/01 05:29:00;;;;;;;;;;;;;;;;;;5068921;28;19905;-47
2022/07/01 05:31:26;;;;;;;;;;;;;;;;;;5068717;28;19955;-46
2022/07/01 05:33:52;;;;;;;;;;;;;;;;;;5068766;28;19918;-50
2022/07/01 05:36:18;;;;;;;;;;;;;;;;;;5068721;28;19917;-47
2022/07/01 05:38:44;;;;;;;;;;;;;;;;;;5068784;28;19998;-46
2022/07/01 05:41:10;;;;;;;;;;;;;;;;;;5068939;28;19962;-49
2022/07/01 05:43:36;;;;;;;;;;;;;;;;;;5068531;28;19912;-49
2022/07/01 05:46:02;;;;;;;;;;;;;;;;;;5068698;28;19911;-46
2022/07/01 05:48:28;;;;;;;;;;;;;;;;;;5067985;28;19908;-46
2022/07/01 05:50:54;;;;;;;;;;;;;;;;;;5068928;28;19908;-50
2022/07/01 05:53:20;;;;;;;;;;;;;;;;;;5068348;28;19915;-45
2022/07/01 05:55:46;;;;;;;;;;;;;;;;;;5068844;28;20046;-46
2022/07/01 05:58:12;;;;;;;;;;;;;;;;;;5068954;28;19912;-46
2022/07/01 06:00:38;;;;;;;;;;;;;;;;;;5068265;28;19913;-45
2022/07/01 06:03:04;;;;;;;;;;;;;;;;;;5068132;28;19913;-47
2022/07/01 06:05:30;;;;;;;;;;;;;;;;;;5068477;28;19994;-48
2022/07/01 06:07:56;;;;;;;;;;;;;;;;;;5068663;28;19916;-47
2022/07/01 06:10:22;;;;;;;;;;;;;;;;;;5068505;28;20394;-47
2022/07/01 06:12:48;;;;;;;;;;;;;;;;;;5068112;28;19999;-48
2022/07/01 06:15:14;;;;;;;;;;;;;;;;;;5066537;28;19908;-46
2022/07/01 06:17:40;;;;;;;;;;;;;;;;;;5066727;28;19910;-46
2022/07/01 06:20:06;;;;;;;;;;;;;;;;;;5067257;28;19908;-48
2022/07/01 06:22:32;;;;;;;;;;;;;;;;;;5067668;28;19987;-46
2022/07/01 06:24:58;;;;;;;;;;;;;;;;;;5067753;28;19908;-48
2022/07/01 06:27:24;;;;;;;;;;;;;;;;;;5063970;28;20387;-46
2022/07/01 06:29:51;;;;;;;;;;;;;;;;;;5067496;28;20003;-46
2022/07/01 06:32:18;;;;;;;;;;;;;;;;;;5067350;28;19949;-46
2022/07/01 06:34:44;;;;;;;;;;;;;;;;;;5069978;28;19913;-46
2022/07/01 06:37:10;;;;;;;;;;;;;;;;;;5084220;28;19915;-45
2022/07/01 06:39:36;;;;;;;;;;;;;;;;;;5081970;28;19916;-46
2022/07/01 06:42:02;;;;;;;;;;;;;;;;;;5068956;28;19999;-48
2022/07/01 06:44:28;;;;;;;;;;;;;;;;;;5067699;28;19914;-49
2022/07/01 06:46:54;;;;;;;;;;;;;;;;;;5068714;28;19912;-48
2022/07/01 06:49:20;;;;;;;;;;;;;;;;;;5068862;28;19915;-48
2022/07/01 06:51:46;;;;;;;;;;;;;;;;;;5068347;28;20003;-47
2022/07/01 06:54:12;;;;;;;;;;;;;;;;;;5071753;28;19908;-47
2022/07/01 06:56:38;;;;;;;;;;;;;;;;;;5079828;28;19920;-46
2022/07/01 06:59:04;;;;;;;;;;;;;;;;;;5068649;28;19905;-49
2022/07/01 07:01:30;;;;;;;;;;;;;;;;;;5068394;28;19916;-48
2022/07/01 07:03:55;;;;;;;;;;;;;;;;;;5068020;28;19908;-47
2022/07/01 07:06:21;;;;;;;;;;;;;;;;;;5068078;28;19908;-50
2022/07/01 07:08:47;;;;;;;;;;;;;;;;;;5068248;28;19918;-46
2022/07/01 07:11:14;;;;;;;;;;;;;;;;;;5067380;28;19966;-48
2022/07/01 07:13:40;;;;;;;;;;;;;;;;;;5066534;28;19927;-49
2022/07/01 07:16:06;;;;;;;;;;;;;;;;;;5068661;28;20330;-49
2022/07/01 07:18:32;;;;;;;;;;;;;;;;;;5087588;28;19904;-47
2022/07/01 07:20:58;;;;;;;;;;;;;;;;;;5087893;28;19908;-49
2022/07/01 07:23:24;;;;;;;;;;;;;;;;;;5087708;28;20032;-48
2022/07/01 07:25:50;;;;;;;;;;;;;;;;;;5068743;28;19919;-48
2022/07/01 07:28:16;;;;;;;;;;;;;;;;;;5071599;28;19912;-47
2022/07/01 07:30:42;;;;;;;;;;;;;;;;;;5070802;28;19915;-46
2022/07/01 07:33:08;;;;;;;;;;;;;;;;;;5091699;28;19987;-49
2022/07/01 07:35:34;;;;;;;;;;;;;;;;;;5091150;28;19908;-49
2022/07/01 07:38:00;;;;;;;;;;;;;;;;;;5091466;28;19915;-49
2022/07/01 07:40:26;;;;;;;;;;;;;;;;;;5088936;28;19920;-46
2022/07/01 07:42:52;;;;;;;;;;;;;;;;;;5091512;28;19947;-47
2022/07/01 07:45:18;;;;;;;;;;;;;;;;;;5088976;28;19965;-50
2022/07/01 07:47:44;;;;;;;;;;;;;;;;;;5090163;28;19908;-48
2022/07/01 07:50:10;;;;;;;;;;;;;;;;;;5091362;28;19985;-49
2022/07/01 07:52:36;;;;;;;;;;;;;;;;;;5091205;28;20414;-47
2022/07/01 07:55:02;;;;;;;;;;;;;;;;;;5088775;28;19927;-47
2022/07/01 07:57:28;;;;;;;;;;;;;;;;;;5075148;28;19912;-46
2022/07/01 07:59:54;;;;;;;;;;;;;;;;;;5084253;28;19908;-46
2022/07/01 08:02:20;;;;;;;;;;;;;;;;;;5081488;28;19912;-49
2022/07/01 08:04:46;;;;;;;;;;;;;;;;;;5091327;28;19911;-48
2022/07/01 08:07:12;;;;;;;;;;;;;;;;;;5091094;28;19926;-46
2022/07/01 08:09:38;;;;;;;;;;;;;;;;;;5087103;28;19912;-47
2022/07/01 08:12:04;;;;;;;;;;;;;;;;;;5070731;28;19911;-47
2022/07/01 08:14:30;;;;;;;;;;;;;;;;;;5070137;28;19958;-50
2022/07/01 08:16:56;;;;;;;;;;;;;;;;;;5070666;28;19908;-47
2022/07/01 08:19:21;;;;;;;;;;;;;;;;;;5070466;28;19954;-46
2022/07/01 08:21:47;;;;;;;;;;;;;;;;;;5070947;28;19912;-49
2022/07/01 08:24:13;;;;;;;;;;;;;;;;;;5069352;28;20003;-48
2022/07/01 08:26:39;;;;;;;;;;;;;;;;;;5090708;28;19915;-47
2022/07/01 08:29:05;;;;;;;;;;;;;;;;;;5090421;28;19907;-48
2022/07/01 08:31:31;;;;;;;;;;;;;;;;;;5090327;28;19939;-47
2022/07/01 08:33:57;;;;;;;;;;;;;;;;;;5090774;28;20448;-48
2022/07/01 08:36:23;;;;;;;;;;;;;;;;;;5087614;28;19912;-48
2022/07/01 08:38:49;;;;;;;;;;;;;;;;;;5089763;28;19956;-48
2022/07/01 08:41:15;;;;;;;;;;;;;;;;;;5090392;28;19911;-49
2022/07/01 08:43:41;;;;;;;;;;;;;;;;;;5090220;28;19907;-46
2022/07/01 08:46:07;;;;;;;;;;;;;;;;;;5090270;28;19912;-46
2022/07/01 08:48:33;;;;;;;;;;;;;;;;;;5089926;28;20037;-49
2022/07/01 08:51:03;;;;;;;;;;;;;;;;;;5086950;28;19908;-47
2022/07/01 08:53:29;;;;;;;;;;;;;;;;;;5090116;28;19904;-47
2022/07/01 08:58:40;;;;;;;;;;;;;;;;;;5089618;28;19923;-47
2022/07/01 09:01:06;;;;;;;;;;;;;;;;;;5089606;28;19934;-47
2022/07/01 09:03:32;;;;;;;;;;;;;;;;;;5089795;28;19995;-48
2022/07/01 09:05:58;;;;;;;;;;;;;;;;;;5086058;28;19954;-50
2022/07/01 09:08:24;;;;;;;;;;;;;;;;;;5089528;28;19915;-47
2022/07/01 09:10:50;;;;;;;;;;;;;;;;;;5089440;28;20402;-47
2022/07/01 09:13:15;;;;;;;;;;;;;;;;;;5089303;28;19961;-50
2022/07/01 09:15:41;;;;;;;;;;;;;;;;;;5085526;28;19912;-49
2022/07/01 09:18:07;;;;;;;;;;;;;;;;;;5069038;28;19912;-46
2022/07/01 09:20:33;;;;;;;;;;;;;;;;;;5066515;28;19912;-46
2022/07/01 09:22:59;;;;;;;;;;;;;;;;;;5066473;28;20009;-48
2022/07/01 09:25:25;;;;;;;;;;;;;;;;;;5068915;28;20003;-50
2022/07/01 09:27:51;;;;;;;;;;;;;;;;;;5066236;28;19915;-47
2022/07/01 09:30:17;;;;;;;;;;;;;;;;;;5067356;28;19954;-47
2022/07/01 09:32:43;;;;;;;;;;;;;;;;;;5067821;28;19904;-49
2022/07/01 09:35:10;;;;;;;;;;;;;;;;;;5066205;28;19904;-47
2022/07/01 09:37:35;;;;;;;;;;;;;;;;;;5067242;28;19970;-46
2022/07/01 09:40:03;;;;;;;;;;;;;;;;;;5067659;28;20367;-47
2022/07/01 09:42:29;;;;;;;;;;;;;;;;;;5067205;28;20350;-46
2022/07/01 09:44:55;;;;;;;;;;;;;;;;;;5067527;28;19914;-46
2022/07/01 09:47:21;;;;;;;;;;;;;;;;;;5067035;28;19908;-47
2022/07/01 09:49:47;;;;;;;;;;;;;;;;;;5067468;28;19908;-46
2022/07/01 09:52:13;;;;;;;;;;;;;;;;;;5067272;28;20280;-48
2022/07/01 09:54:39;;;;;;;;;;;;;;;;;;5067171;28;19905;-48
2022/07/01 09:57:05;;;;;;;;;;;;;;;;;;5066693;28;19912;-49
2022/07/01 09:59:31;;;;;;;;;;;;;;;;;;5067194;28;19908;-50
2022/07/01 10:01:57;;;;;;;;;;;;;;;;;;5067303;28;19912;-48
2022/07/01 10:04:23;;;;;;;;;;;;;;;;;;5079025;28;20006;-47
2022/07/01 10:06:50;;;;;;;;;;;;;;;;;;5083325;28;20266;-46
2022/07/01 10:09:16;;;;;;;;;;;;;;;;;;5068079;28;19912;-47
2022/07/01 10:11:42;;;;;;;;;;;;;;;;;;5085635;28;20387;-49
2022/07/01 10:14:09;;;;;;;;;;;;;;;;;;5083326;28;19918;-47
2022/07/01 10:16:36;;;;;;;;;;;;;;;;;;5066424;28;19957;-46
2022/07/01 10:19:03;;;;;;;;;;;;;;;;;;5083795;28;19908;-47
2022/07/01 10:21:28;;;;;;;;;;;;;;;;;;5085942;28;19912;-47
2022/07/01 10:23:54;;;;;;;;;;;;;;;;;;5086111;28;20276;-49
2022/07/01 10:26:20;;;;;;;;;;;;;;;;;;5067259;28;19955;-47
2022/07/01 10:28:47;;;;;;;;;;;;;;;;;;5084420;28;19915;-47
2022/07/01 10:31:15;;;;;;;;;;;;;;;;;;5082408;28;19943;-48
2022/07/01 10:33:42;;;;;;;;;;;;;;;;;;5082882;28;19986;-48
2022/07/01 10:36:08;;;;;;;;;;;;;;;;;;5070421;28;19908;-49
2022/07/01 10:38:34;;;;;;;;;;;;;;;;;;5076045;28;19908;-47
2022/07/01 10:41:10;;;;;;;;;;;;;;;;;;5079141;28;19912;-48
2022/07/01 10:43:36;;;;;;;;;;;;;;;;;;5069788;28;19981;-47
2022/07/01 10:46:02;;;;;;;;;;;;;;;;;;5067089;28;19917;-47
2022/07/01 10:48:28;;;;;;;;;;;;;;;;;;5071777;28;19925;-49
2022/07/01 10:50:54;;;;;;;;;;;;;;;;;;5061440;28;19932;-48
2022/07/01 10:53:20;;;;;;;;;;;;;;;;;;5077219;28;19908;-50
2022/07/01 10:55:46;;;;;;;;;;;;;;;;;;5074790;28;19915;-51
2022/07/01 10:58:12;;;;;;;;;;;;;;;;;;5068323;28;19916;-48
2022/07/01 11:00:38;;;;;;;;;;;;;;;;;;5069733;28;19915;-47
2022/07/01 11:03:04;;;;;;;;;;;;;;;;;;5079085;28;20426;-47
2022/07/01 11:05:29;;;;;;;;;;;;;;;;;;5089183;28;19994;-50
2022/07/01 11:07:55;;;;;;;;;;;;;;;;;;5079940;28;19919;-49
2022/07/01 11:10:21;;;;;;;;;;;;;;;;;;5068993;28;19978;-48
2022/07/01 11:12:49;;;;;;;;;;;;;;;;;;5070161;28;19912;-47
2022/07/01 11:15:15;;;;;;;;;;;;;;;;;;5069450;28;19913;-48
2022/07/01 11:17:41;;;;;;;;;;;;;;;;;;5071104;28;19958;-47
2022/07/01 11:20:07;;;;;;;;;;;;;;;;;;5070835;28;19920;-48
2022/07/01 11:22:33;;;;;;;;;;;;;;;;;;5071342;28;20372;-49
2022/07/01 11:24:59;;;;;;;;;;;;;;;;;;5072350;28;19915;-48
2022/07/01 11:27:25;;;;;;;;;;;;;;;;;;5071812;28;19954;-49
2022/07/01 11:29:51;;;;;;;;;;;;;;;;;;5070972;28;20314;-52
2022/07/01 11:32:17;;;;;;;;;;;;;;;;;;5089106;28;19916;-50
2022/07/01 11:34:43;;;;;;;;;;;;;;;;;;5090427;28;19908;-47
2022/07/01 11:39:53;;;;;;;;;;;;;;;;;;5071579;28;19964;-52
2022/07/01 11:42:21;;;;;;;;;;;;;;;;;;5071671;28;19904;-52
2022/07/01 11:44:47;;;;;;;;;;;;;;;;;;5072320;28;19912;-51
2022/07/01 11:47:12;;;;;;;;;;;;;;;;;;5071921;28;19908;-48
2022/07/01 11:49:38;;;;;;;;;;;;;;;;;;5069383;28;19912;-49
2022/07/01 11:52:05;;;;;;;;;;;;;;;;;;5074235;28;19987;-50
2022/07/01 11:54:31;;;;;;;;;;;;;;;;;;5092097;28;19904;-47
2022/07/01 11:56:57;;;;;;;;;;;;;;;;;;5091842;28;20006;-50
2022/07/01 11:59:23;;;;;;;;;;;;;;;;;;5091697;28;19961;-51
2022/07/01 12:01:48;;;;;;;;;;;;;;;;;;5092002;28;19912;-48
2022/07/01 12:06:24;;;;;;;0.75;0.40;;;;;;;;;;5085749;28;20147;-46
2022/07/01 12:08:51;;;;;;;0.20;0.20;;;;;;;;;;5086263;28;20028;-46
2022/07/01 12:11:18;;;;;;;0.38;0.30;;;;;;;;;;5085968;28;20070;-49
2022/07/01 12:13:47;;;;;;;1.00;0.30;;;;;;;;;;5080675;28;20025;-47
2022/07/01 12:16:14;;;;;;;0.30;0.30;;;;;;;;;;5065626;28;20033;-47
2022/07/01 12:18:40;;;;;;;0.30;0.30;;;;;;;;;;5065528;28;20029;-46
2022/07/01 12:21:06;;;;;;;0.20;0.20;;;;;;;;;;5065790;28;20112;-45
2022/07/01 12:23:32;;;;;;;0.30;0.30;;;;;;;;;;5065564;28;20033;-47
2022/07/01 12:25:59;;;;;;;0.22;0.20;;;;;;;;;;5068655;28;20455;-47
2022/07/01 12:28:43;;;;;;;0.20;0.20;;;;;;;;;;5074609;28;20028;-46
2022/07/01 12:31:10;;;;;;;0.20;0.20;;;;;;;;;;5084533;28;20024;-47
2022/07/01 12:33:37;;;;;;;0.20;0.20;;;;;;;;;;5088995;28;20024;-46
2022/07/01 12:36:04;;;;;;;0.20;0.20;;;;;;;;;;5085156;28;20021;-46
2022/07/01 12:38:31;;;;;;;0.20;0.20;;;;;;;;;;5082339;28;20033;-46
2022/07/01 12:40:57;;;;;;;0.32;0.30;;;;;;;;;;5078258;28;20138;-48
2022/07/01 12:43:28;;;;;;;0.20;0.20;;;;;;;;;;5105673;28;20036;-45
2022/07/01 12:45:55;;;;;;;0.30;0.30;;;;;;;;;;5104530;28;20050;-47
2022/07/01 12:48:21;;;;;;;0.20;0.20;;;;;;;;;;5102506;28;20031;-46
2022/07/01 12:50:50;;;;;;;0.30;0.30;;;;;;;;;;5089978;28;20029;-46
2022/07/01 12:53:20;;;;;;;0.63;0.20;;;;;;;;;;5084263;28;20036;-46
2022/07/01 12:55:56;;;;;;;0.22;0.20;;;;;;;;;;5084987;28;20070;-47
2022/07/01 12:58:24;;;;;;;0.20;0.20;;;;;;;;;;5088789;28;20036;-46
2022/07/01 13:00:51;;;;;;;0.20;0.20;;;;;;;;;;5096356;28;20514;-48
2022/07/01 13:03:22;;;;;;;0.45;0.38;;;;;;;;;;5105065;28;20034;-46
2022/07/01 13:05:48;;;;;;;0.30;0.30;;;;;;;;;;5104431;28;20081;-46
2022/07/01 13:08:15;;;;;;;0.20;0.20;;;;;;;;;;5088609;28;20111;-48
2022/07/01 13:10:41;;;;;;;0.20;0.20;;;;;;;;;;5105375;28;20031;-46
2022/07/01 13:13:08;;;;;;;0.30;0.30;;;;;;;;;;5096944;28;20035;-48
2022/07/01 13:15:34;;;;;;;0.20;0.20;;;;;;;;;;5100184;28;20444;-46
2022/07/01 13:18:00;;;;;;;0.20;0.20;;;;;;;;;;5074318;28;20492;-46
2022/07/01 13:20:28;;;;;;;1.08;0.57;;;;;;;;;;5056663;28;20039;-46
2022/07/01 13:22:54;;;;;;;0.20;0.20;;;;;;;;;;5064002;28;20114;-46
2022/07/01 13:25:21;;;;;;;0.40;0.30;;;;;;;;;;5070859;28;20104;-48
2022/07/01 13:27:47;;;;;;;0.20;0.20;;;;;;;;;;5071110;28;20032;-48
2022/07/01 13:30:14;;;;;;;0.85;0.40;;;;;;;;;;5071208;28;20028;-47
2022/07/01 13:32:40;;;;;;;0.28;0.28;;;;;;;;;;5070305;28;20033;-46
2022/07/01 13:35:10;;;;;;;0.28;0.22;;;;;;;;;;5071413;28;20035;-47
2022/07/01 13:37:36;;;;;;;0.30;0.30;;;;;;;;;;5071008;28;20077;-47
2022/07/01 13:40:02;;;;;;;;;;;;;;;;;;5071851;28;20028;-47
2022/07/01 13:42:28;;;;;;;;;;;;;;;;;;5071733;28;19915;-48
2022/07/01 13:44:54;;;;;;;;;;;;;;;;;;5084873;28;19922;-48
2022/07/01 13:47:20;;;;;;;;;;;;;;;;;;5082973;28;19908;-47
2022/07/01 13:49:46;;;;;;;;;;;;;;;;;;5071974;28;19996;-48
2022/07/01 13:52:12;;;;;;;;;;;;;;;;;;5074324;28;19956;-50
2022/07/01 13:54:38;;;;;;;;;;;;;;;;;;5055125;28;19995;-47
2022/07/01 13:57:04;;;;;;;;;;;;;;;;;;5050915;28;19992;-49
2022/07/01 13:59:30;;;;;;;;;;;;;;;;;;5051389;28;19907;-48
2022/07/01 14:01:56;;;;;;;;;;;;;;;;;;5051089;28;19970;-47
2022/07/01 14:04:22;;;;;;;;;;;;;;;;;;5050808;28;19917;-48
2022/07/01 14:06:48;;;;;;;;;;;;;;;;;;5051153;28;19908;-49
2022/07/01 14:09:13;;;;;;;;;;;;;;;;;;5069999;28;19919;-49
2022/07/01 14:11:40;;;;;;;;;;;;;;;;;;5080055;28;19908;-47
2022/07/01 14:14:06;;;;;;;;;;;;;;;;;;5089912;28;19957;-46
2022/07/01 14:16:32;;;;;;;;;;;;;;;;;;5077866;28;20449;-47
2022/07/01 14:18:58;;;;;;;;;;;;;;;;;;5077913;28;19930;-47
2022/07/01 14:21:24;;;;;;;;;;;;;;;;;;5089963;28;19904;-47
2022/07/01 14:23:50;;;;;;;;;;;;;;;;;;5085278;28;20447;-46
2022/07/01 14:26:16;;;;;;;;;;;;;;;;;;5069106;28;19912;-45
2022/07/01 14:28:42;;;;;;;;;;;;;;;;;;5078073;28;20570;-46
2022/07/01 14:31:07;;;;;;;;;;;;;;;;;;5079863;28;20026;-48
2022/07/01 14:33:33;;;;;;;;;;;;;;;;;;5074001;28;19914;-47
2022/07/01 14:35:59;;;;;;;;;;;;;;;;;;5069659;28;19904;-47
2022/07/01 14:38:25;;;;;;;;;;;;;;;;;;5073998;28;19915;-47
2022/07/01 14:40:51;;;;;;;;;;;;;;;;;;5075866;28;19904;-46
2022/07/01 14:43:17;;;;;;;;;;;;;;;;;;5069147;28;19904;-47
2022/07/01 14:45:44;;;;;;;;;;;;;;;;;;5069034;28;20359;-49
2022/07/01 14:48:10;;;;;;;;;;;;;;;;;;5081532;28;19911;-46
2022/07/01 14:50:36;;;;;;;;;;;;;;;;;;5060885;28;19927;-46
2022/07/01 14:53:03;;;;;;;;;;;;;;;;;;5067783;28;19909;-47
2022/07/01 14:55:29;;;;;;;;;;;;;;;;;;5063935;28;19912;-47
2022/07/01 14:57:55;;;;;;;;;;;;;;;;;;5065974;28;19991;-45
2022/07/01 15:00:21;;;;;;;;;;;;;;;;;;5065192;28;19908;-48
2022/07/01 15:02:47;;;;;;;;;;;;;;;;;;5073626;28;19915;-47
2022/07/01 15:05:13;;;;;;;;;;;;;;;;;;5074713;28;19917;-48
2022/07/01 15:07:39;;;;;;;;;;;;;;;;;;5069929;28;19919;-48
2022/07/01 15:10:05;;;;;;;;;;;;;;;;;;5069528;28;19912;-48
2022/07/01 15:12:31;;;;;;;;;;;;;;;;;;5069583;28;19904;-48
2022/07/01 15:14:57;;;;;;;;;;;;;;;;;;5069114;28;19948;-47
2022/07/01 15:17:23;;;;;;;;;;;;;;;;;;5061063;28;19920;-48
2022/07/01 15:19:49;;;;;;;;;;;;;;;;;;5049287;28;19909;-47
2022/07/01 15:22:15;;;;;;;;;;;;;;;;;;5058544;28;19990;-47
2022/07/01 15:24:41;;;;;;;;;;;;;;;;;;5089876;28;19961;-46
2022/07/01 15:27:07;;;;;;;;;;;;;;;;;;5065256;28;20321;-49
2022/07/01 15:29:33;;;;;;;;;;;;;;;;;;5073312;28;19938;-48
2022/07/01 15:31:59;;;;;;;;;;;;;;;;;;5064687;28;19938;-47
2022/07/01 15:34:25;;;;;;;;;;;;;;;;;;5064653;28;19912;-47
2022/07/01 15:36:51;;;;;;;;;;;;;;;;;;5071581;28;19908;-46
2022/07/01 15:39:17;;;;;;;;;;;;;;;;;;5068893;28;19904;-47
2022/07/01 15:41:43;;;;;;;;;;;;;;;;;;5076166;28;19916;-45
2022/07/01 15:44:09;;;;;;;;;;;;;;;;;;5088403;28;19908;-46
2022/07/01 15:46:35;;;;;;;;;;;;;;;;;;5087912;28;20023;-50
2022/07/01 15:49:00;;;;;;;;;;;;;;;;;;5068182;28;19912;-46
2022/07/01 15:51:27;;;;;;;;;;;;;;;;;;5066345;28;19917;-48
2022/07/01 15:53:54;;;;;;;;;;;;;;;;;;5074877;28;20424;-48
2022/07/01 15:56:20;;;;;;;;;;;;;;;;;;5063005;28;19914;-47
2022/07/01 15:58:46;;;;;;;;;;;;;;;;;;5084622;28;19937;-47
2022/07/01 16:01:13;;;;;;;;;;;;;;;;;;5088256;28;20340;-46
2022/07/01 16:03:39;;;;;;;;;;;;;;;;;;5075685;28;19914;-48
2022/07/01 16:06:05;;;;;;;;;;;;;;;;;;5087590;28;19911;-47
2022/07/01 16:08:31;;;;;;;;;;;;;;;;;;5089175;28;19911;-48
2022/07/01 16:10:57;;;;;;;;;;;;;;;;;;5074172;28;19939;-47
2022/07/01 16:13:23;;;;;;;;;;;;;;;;;;5062490;28;19908;-47
2022/07/01 16:15:49;;;;;;;;;;;;;;;;;;5069534;28;19912;-47
2022/07/01 16:18:15;;;;;;;;;;;;;;;;;;5080870;28;19912;-46
2022/07/01 16:20:41;;;;;;;;;;;;;;;;;;5072623;28;19909;-47
2022/07/01 16:23:07;;;;;;;;;;;;;;;;;;5071354;28;19908;-50
2022/07/01 16:25:32;;;;;;;;;;;;;;;;;;5075813;28;19928;-47
2022/07/01 16:27:58;;;;;;;;;;;;;;;;;;5084071;28;19912;-47
2022/07/01 16:30:28;;;;;;;;;;;;;;;;;;5079187;28;19912;-47
2022/07/01 16:32:57;;;;;;;;;;;;;;;;;;5079824;28;20341;-46
2022/07/01 16:35:23;;;;;;;;;;;;;;;;;;5087743;28;19904;-47
2022/07/01 16:37:49;;;;;;;;;;;;;;;;;;5083132;28;19923;-46
2022/07/01 16:40:15;;;;;;;;;;;;;;;;;;5047277;28;20281;-47